createdAt,value
2023-01-11T00:00:39.077Z,8.00
2023-01-11T00:03:24.817Z,8.30
2023-01-11T00:06:11.789Z,8.30
2023-01-11T00:08:57.375Z,8.30
2023-01-11T00:11:42.850Z,8.30
2023-01-11T00:14:28.551Z,8.20
2023-01-11T00:17:13.949Z,8.20
2023-01-11T00:19:59.558Z,8.10
2023-01-11T00:22:45.404Z,8.00
2023-01-11T00:25:31.305Z,7.90
2023-01-11T00:28:17.021Z,7.70
2023-01-11T00:31:03.137Z,7.30
2023-01-11T00:33:49.009Z,7.10
2023-01-11T00:36:34.878Z,7.50
2023-01-11T00:39:20.398Z,7.70
2023-01-11T00:42:24.931Z,7.80
2023-01-11T00:45:29.251Z,7.90
2023-01-11T00:48:14.619Z,7.90
2023-01-11T00:51:00.243Z,7.80
2023-01-11T00:53:48.498Z,7.90
2023-01-11T00:56:34.563Z,7.10
2023-01-11T00:59:19.986Z,6.50
2023-01-11T01:02:05.940Z,6.20
2023-01-11T01:04:51.408Z,6.80
2023-01-11T01:07:37.743Z,7.30
2023-01-11T01:10:23.166Z,7.50
2023-01-11T01:13:29.907Z,7.70
2023-01-11T01:16:15.448Z,7.50
2023-01-11T01:19:01.293Z,7.40
2023-01-11T01:21:46.901Z,7.20
2023-01-11T01:24:33.923Z,7.30
2023-01-11T01:27:20.119Z,7.30
2023-01-11T01:30:07.329Z,7.20
2023-01-11T01:32:53.305Z,7.30
2023-01-11T01:35:38.995Z,7.30
2023-01-11T01:38:24.738Z,7.30
2023-01-11T01:41:13.084Z,7.40
2023-01-11T01:44:04.558Z,7.30
2023-01-11T01:46:50.483Z,7.10
2023-01-11T01:49:36.897Z,6.50
2023-01-11T01:52:29.003Z,6.40
2023-01-11T01:55:23.074Z,6.40
2023-01-11T01:58:14.033Z,6.60
2023-01-11T02:01:22.475Z,6.10
2023-01-11T02:04:19.486Z,6.30
2023-01-11T02:07:05.295Z,6.50
2023-01-11T02:10:11.215Z,6.30
2023-01-11T02:13:05.140Z,5.80
2023-01-11T02:16:07.880Z,5.70
2023-01-11T02:18:55.662Z,6.10
2023-01-11T02:22:08.671Z,6.50
2023-01-11T02:24:56.871Z,6.60
2023-01-11T02:27:57.556Z,6.70
2023-01-11T02:31:05.361Z,6.40
2023-01-11T02:34:19.978Z,5.70
2023-01-11T02:37:16.304Z,6.00
2023-01-11T02:40:23.635Z,5.80
2023-01-11T02:43:47.877Z,6.00
2023-01-11T02:46:58.637Z,6.40
2023-01-11T02:49:55.133Z,7.20
2023-01-11T02:52:58.758Z,6.80
2023-01-11T02:55:52.138Z,7.10
2023-01-11T02:58:41.492Z,7.10
2023-01-11T03:01:27.498Z,7.10
2023-01-11T03:04:42.570Z,7.10
2023-01-11T03:07:30.747Z,7.20
2023-01-11T03:10:28.648Z,7.20
2023-01-11T03:13:22.909Z,7.10
2023-01-11T03:16:39.130Z,7.20
2023-01-11T03:19:42.682Z,7.40
2023-01-11T03:22:48.779Z,7.50
2023-01-11T03:26:00.204Z,7.50
2023-01-11T03:29:24.424Z,7.40
2023-01-11T03:32:26.069Z,6.60
2023-01-11T03:35:25.638Z,6.60
2023-01-11T03:38:40.660Z,6.50
2023-01-11T03:41:31.133Z,6.60
2023-01-11T03:44:20.350Z,6.70
2023-01-11T03:47:09.101Z,6.80
2023-01-11T03:50:05.041Z,6.70
2023-01-11T03:52:53.899Z,6.70
2023-01-11T03:55:42.723Z,6.80
2023-01-11T03:58:29.313Z,6.60
2023-01-11T04:01:15.037Z,6.30
2023-01-11T04:04:00.515Z,6.30
2023-01-11T04:06:46.167Z,6.60
2023-01-11T04:09:31.903Z,6.60
2023-01-11T04:12:17.593Z,6.70
2023-01-11T04:15:05.253Z,6.70
2023-01-11T04:17:51.158Z,6.90
2023-01-11T04:20:40.209Z,6.60
2023-01-11T04:23:25.999Z,6.60
2023-01-11T04:26:11.759Z,6.70
2023-01-11T04:28:57.596Z,6.70
2023-01-11T04:31:43.215Z,6.70
2023-01-11T04:34:28.787Z,6.80
2023-01-11T04:37:14.543Z,6.40
2023-01-11T04:40:00.149Z,6.40
2023-01-11T04:42:46.890Z,6.50
2023-01-11T04:45:33.210Z,6.80
2023-01-11T04:48:18.730Z,6.70
2023-01-11T04:51:04.621Z,6.70
2023-01-11T04:53:50.489Z,6.70
2023-01-11T04:56:36.423Z,6.80
2023-01-11T04:59:21.898Z,6.90
2023-01-11T05:02:07.552Z,7.00
2023-01-11T05:04:52.976Z,7.10
2023-01-11T05:07:39.421Z,7.10
2023-01-11T05:10:25.359Z,7.10
2023-01-11T05:13:10.907Z,7.20
2023-01-11T05:15:56.414Z,7.00
2023-01-11T05:18:47.317Z,7.10
2023-01-11T05:21:42.437Z,7.30
2023-01-11T05:24:28.098Z,7.30
2023-01-11T05:27:13.863Z,7.30
2023-01-11T05:29:59.721Z,7.10
2023-01-11T05:32:45.940Z,7.20
2023-01-11T05:35:31.673Z,7.20
2023-01-11T05:38:17.233Z,7.10
2023-01-11T05:41:09.046Z,7.30
2023-01-11T05:44:13.685Z,7.20
2023-01-11T05:46:59.641Z,7.20
2023-01-11T05:49:45.025Z,7.10
2023-01-11T05:52:30.685Z,6.80
2023-01-11T05:55:16.649Z,6.60
2023-01-11T05:58:04.964Z,6.70
2023-01-11T06:00:52.926Z,6.80
2023-01-11T06:03:38.691Z,6.50
2023-01-11T06:06:24.175Z,6.90
2023-01-11T06:09:10.221Z,6.30
2023-01-11T06:11:55.593Z,6.20
2023-01-11T06:14:41.177Z,6.10
2023-01-11T06:17:27.012Z,6.00
2023-01-11T06:20:12.791Z,5.90
2023-01-11T06:22:58.749Z,6.00
2023-01-11T06:25:45.436Z,6.00
2023-01-11T06:28:32.725Z,6.00
2023-01-11T06:31:18.767Z,6.10
2023-01-11T06:34:04.093Z,6.20
2023-01-11T06:36:49.790Z,6.20
2023-01-11T06:39:35.517Z,6.30
2023-01-11T06:42:21.036Z,6.40
2023-01-11T06:45:07.474Z,6.10
2023-01-11T06:47:53.629Z,6.30
2023-01-11T06:50:39.247Z,6.60
2023-01-11T06:53:28.417Z,6.80
2023-01-11T06:56:17.524Z,6.70
2023-01-11T06:59:03.263Z,6.70
2023-01-11T07:01:48.789Z,6.70
2023-01-11T07:04:34.599Z,6.60
2023-01-11T07:07:20.384Z,6.50
2023-01-11T07:10:09.185Z,6.60
2023-01-11T07:12:55.051Z,6.50
2023-01-11T07:15:40.866Z,7.00
2023-01-11T07:18:26.641Z,7.10
2023-01-11T07:21:12.353Z,7.20
2023-01-11T07:23:58.258Z,7.30
2023-01-11T07:26:44.224Z,7.50
2023-01-11T07:29:30.118Z,7.60
2023-01-11T07:32:15.957Z,7.50
2023-01-11T07:35:01.702Z,7.50
2023-01-11T07:37:47.803Z,7.50
2023-01-11T07:40:36.411Z,6.80
2023-01-11T07:43:23.547Z,6.90
2023-01-11T07:46:09.205Z,7.20
2023-01-11T07:48:55.087Z,7.20
2023-01-11T07:51:41.203Z,7.40
2023-01-11T07:54:27.072Z,7.50
2023-01-11T07:57:13.047Z,7.50
2023-01-11T07:59:58.843Z,7.70
2023-01-11T08:02:44.777Z,7.90
2023-01-11T08:05:30.606Z,8.00
2023-01-11T08:08:16.114Z,8.10
2023-01-11T08:11:20.116Z,8.10
2023-01-11T08:14:24.011Z,8.20
2023-01-11T08:17:14.959Z,8.30
2023-01-11T08:20:00.629Z,8.60
2023-01-11T08:22:46.480Z,8.60
2023-01-11T08:25:32.656Z,8.70
2023-01-11T08:28:18.439Z,8.90
2023-01-11T08:31:08.900Z,9.00
2023-01-11T08:33:54.473Z,9.10
2023-01-11T08:36:40.472Z,9.00
2023-01-11T08:39:28.355Z,8.90
2023-01-11T08:42:14.383Z,8.60
2023-01-11T08:45:00.345Z,8.40
2023-01-11T08:47:47.000Z,8.80
2023-01-11T08:50:33.143Z,9.00
2023-01-11T08:53:20.750Z,8.90
2023-01-11T08:56:06.952Z,8.90
2023-01-11T08:58:52.869Z,8.80
2023-01-11T09:01:38.771Z,8.70
2023-01-11T09:04:25.931Z,8.80
2023-01-11T09:07:11.643Z,8.80
2023-01-11T09:09:57.416Z,8.80
2023-01-11T09:12:43.947Z,9.00
2023-01-11T09:15:30.054Z,9.00
2023-01-11T09:18:16.048Z,8.90
2023-01-11T09:21:01.485Z,9.20
2023-01-11T09:23:47.226Z,9.10
2023-01-11T09:26:32.884Z,9.20
2023-01-11T09:29:19.292Z,9.30
2023-01-11T09:32:06.135Z,9.40
2023-01-11T09:34:57.251Z,9.80
2023-01-11T09:37:52.257Z,10.50
2023-01-11T09:41:10.239Z,10.50
2023-01-11T09:44:10.501Z,11.00
2023-01-11T09:47:30.819Z,11.10
2023-01-11T09:50:26.660Z,11.00
2023-01-11T09:53:27.349Z,11.20
2023-01-11T09:56:16.371Z,10.80
2023-01-11T09:59:33.423Z,10.20
2023-01-11T10:02:29.001Z,10.40
2023-01-11T10:05:36.602Z,10.30
2023-01-11T10:18:34.256Z,10.00
2023-01-11T10:22:32.951Z,10.30
2023-01-11T10:25:30.445Z,9.80
2023-01-11T10:28:36.078Z,9.30
2023-01-11T10:31:30.432Z,9.10
2023-01-11T10:34:38.694Z,9.40
2023-01-11T10:37:48.279Z,9.80
2023-01-11T10:41:12.354Z,10.20
2023-01-11T10:44:31.421Z,10.10
2023-01-11T10:47:22.239Z,10.50
2023-01-11T10:50:49.067Z,10.70
2023-01-11T10:54:01.843Z,10.80
2023-01-11T10:57:15.980Z,10.40
2023-01-11T11:00:13.899Z,10.80
2023-01-11T11:03:32.756Z,10.90
2023-01-11T11:06:43.520Z,10.60
2023-01-11T11:10:14.896Z,10.80
2023-01-11T11:13:04.442Z,10.50
2023-01-11T11:16:17.017Z,10.50
2023-01-11T11:19:03.918Z,10.70
2023-01-11T11:21:52.280Z,10.40
2023-01-11T11:24:49.330Z,10.30
2023-01-11T11:27:44.957Z,10.40
2023-01-11T11:30:32.643Z,10.50
2023-01-11T11:33:36.109Z,10.50
2023-01-11T11:36:22.088Z,10.10
2023-01-11T11:39:29.258Z,10.30
2023-01-11T11:42:21.448Z,10.50
2023-01-11T11:45:11.155Z,10.80
2023-01-11T11:48:05.974Z,10.70
2023-01-11T11:50:57.360Z,10.70
2023-01-11T11:53:55.868Z,10.90
2023-01-11T11:56:42.159Z,10.90
2023-01-11T11:59:32.737Z,10.80
2023-01-11T12:02:26.839Z,11.10
2023-01-11T12:05:12.938Z,10.60
2023-01-11T12:07:58.860Z,10.30
2023-01-11T12:10:51.034Z,10.70
2023-01-11T12:13:42.819Z,11.30
2023-01-11T12:16:33.833Z,11.40
2023-01-11T12:19:43.205Z,11.20
2023-01-11T12:22:29.212Z,11.10
2023-01-11T12:25:14.645Z,10.90
2023-01-11T12:28:28.333Z,11.00
2023-01-11T12:31:44.607Z,11.00
2023-01-11T12:34:57.647Z,10.90
2023-01-11T12:38:29.868Z,11.00
2023-01-11T12:41:43.704Z,11.00
2023-01-11T12:44:41.634Z,10.80
2023-01-11T12:48:07.304Z,10.90
2023-01-11T12:51:05.492Z,11.10
2023-01-11T12:54:18.855Z,11.40
2023-01-11T12:57:04.393Z,11.50
2023-01-11T12:59:49.921Z,11.50
2023-01-11T13:03:14.549Z,11.40
2023-01-11T13:06:29.946Z,11.40
2023-01-11T13:09:30.564Z,11.70
2023-01-11T13:12:28.411Z,11.40
2023-01-11T13:15:36.028Z,11.30
2023-01-11T13:18:42.012Z,11.30
2023-01-11T13:21:35.708Z,10.90
2023-01-11T13:24:27.340Z,10.80
2023-01-11T13:27:18.099Z,11.30
2023-01-11T13:30:04.546Z,11.70
2023-01-11T13:33:16.970Z,11.40
2023-01-11T13:36:22.694Z,11.60
2023-01-11T13:39:33.845Z,11.50
2023-01-11T13:42:27.282Z,11.50
2023-01-11T13:45:27.291Z,11.60
2023-01-11T13:48:22.223Z,11.10
2023-01-11T13:51:23.414Z,11.20
2023-01-11T13:54:30.960Z,11.20
2023-01-11T13:57:40.041Z,11.20
2023-01-11T14:00:54.181Z,10.40
2023-01-11T14:04:04.361Z,10.90
2023-01-11T14:07:12.855Z,11.00
2023-01-11T14:10:20.065Z,11.20
2023-01-11T14:13:40.489Z,11.20
2023-01-11T14:17:03.251Z,11.50
2023-01-11T14:20:07.913Z,11.40
2023-01-11T14:23:10.198Z,11.40
2023-01-11T14:26:25.963Z,11.30
2023-01-11T14:29:26.914Z,11.10
2023-01-11T14:32:45.697Z,11.00
2023-01-11T14:36:01.541Z,10.30
2023-01-11T14:39:08.945Z,10.90
2023-01-11T14:42:35.314Z,10.60
2023-01-11T14:45:21.432Z,11.30
2023-01-11T14:48:07.411Z,10.70
2023-01-11T14:51:01.865Z,10.20
2023-01-11T14:53:53.433Z,10.70
2023-01-11T14:56:44.985Z,10.50
2023-01-11T14:59:30.787Z,10.40
2023-01-11T15:02:23.629Z,11.00
2023-01-11T15:05:11.253Z,11.30
2023-01-11T15:08:15.749Z,11.40
2023-01-11T15:11:07.676Z,11.10
2023-01-11T15:13:58.562Z,11.10
2023-01-11T15:17:09.030Z,11.40
2023-01-11T15:19:54.955Z,11.60
2023-01-11T15:22:41.197Z,11.60
2023-01-11T15:25:29.651Z,11.60
2023-01-11T15:28:45.723Z,11.60
2023-01-11T15:31:41.152Z,11.60
2023-01-11T15:34:39.876Z,11.70
2023-01-11T15:37:40.781Z,11.70
2023-01-11T15:40:31.326Z,11.70
2023-01-11T15:43:36.032Z,11.70
2023-01-11T15:46:55.499Z,11.70
2023-01-11T15:49:59.994Z,11.70
2023-01-11T15:53:10.869Z,11.40
2023-01-11T15:56:38.949Z,11.40
2023-01-11T15:59:43.323Z,11.20
2023-01-11T16:03:06.229Z,10.90
2023-01-11T16:06:08.130Z,10.20
2023-01-11T16:09:05.983Z,10.70
2023-01-11T16:11:51.907Z,11.00
2023-01-11T16:15:10.150Z,10.80
2023-01-11T16:18:03.415Z,10.90
2023-01-11T16:21:08.494Z,10.70
2023-01-11T16:23:55.504Z,10.60
2023-01-11T16:26:42.327Z,10.40
2023-01-11T16:29:32.501Z,10.60
2023-01-11T16:32:26.897Z,10.80
2023-01-11T16:35:33.111Z,11.00
2023-01-11T16:38:22.475Z,11.10
2023-01-11T16:41:13.191Z,11.00
2023-01-11T16:44:04.705Z,10.90
2023-01-11T16:47:11.345Z,10.50
2023-01-11T16:50:28.537Z,10.70
2023-01-11T16:53:16.336Z,10.90
2023-01-11T16:56:06.436Z,10.30
2023-01-11T16:59:04.376Z,9.80
2023-01-11T17:01:49.885Z,9.90
2023-01-11T17:04:38.539Z,9.70
2023-01-11T17:07:29.591Z,9.60
2023-01-11T17:10:29.804Z,10.10
2023-01-11T17:13:53.218Z,10.70
2023-01-11T17:16:45.890Z,11.00
2023-01-11T17:19:37.217Z,11.10
2023-01-11T17:22:29.529Z,11.10
2023-01-11T17:25:21.322Z,10.40
2023-01-11T17:28:13.267Z,10.50
2023-01-11T17:31:01.237Z,11.00
2023-01-11T17:33:48.144Z,10.70
2023-01-11T17:36:34.183Z,10.20
2023-01-11T17:39:24.980Z,9.90
2023-01-11T17:42:32.267Z,10.50
2023-01-11T17:45:24.902Z,10.90
2023-01-11T17:48:16.091Z,11.10
2023-01-11T17:51:04.008Z,11.10
2023-01-11T17:53:50.589Z,10.90
2023-01-11T17:56:38.744Z,11.00
2023-01-11T17:59:27.287Z,11.10
2023-01-11T18:02:14.911Z,10.30
2023-01-11T18:05:00.693Z,11.10
2023-01-11T18:07:53.433Z,11.20
2023-01-11T18:10:40.805Z,11.10
2023-01-11T18:13:31.526Z,11.00
2023-01-11T18:16:19.522Z,11.10
2023-01-11T18:19:40.780Z,11.00
2023-01-11T18:22:40.720Z,11.10
2023-01-11T18:25:28.634Z,10.70
2023-01-11T18:28:30.709Z,11.10
2023-01-11T18:31:16.501Z,11.20
2023-01-11T18:34:03.670Z,11.30
2023-01-11T18:36:51.998Z,11.40
2023-01-11T18:39:37.945Z,11.30
2023-01-11T18:42:27.597Z,11.20
2023-01-11T18:45:14.205Z,11.30
2023-01-11T18:48:00.023Z,11.30
2023-01-11T18:50:46.182Z,11.20
2023-01-11T18:53:31.742Z,10.30
2023-01-11T18:56:17.404Z,9.60
2023-01-11T18:59:03.014Z,9.80
2023-01-11T19:01:59.034Z,10.30
2023-01-11T19:04:51.544Z,10.20
2023-01-11T19:07:37.666Z,10.70
2023-01-11T19:10:23.504Z,10.90
2023-01-11T19:13:09.886Z,10.80
2023-01-11T19:15:55.731Z,9.90
2023-01-11T19:18:41.548Z,9.40
2023-01-11T19:21:27.023Z,9.30
2023-01-11T19:24:12.855Z,9.60
2023-01-11T19:26:58.803Z,10.00
2023-01-11T19:29:44.320Z,10.10
2023-01-11T19:32:29.819Z,10.40
2023-01-11T19:35:15.280Z,10.70
2023-01-11T19:38:01.116Z,10.20
2023-01-11T19:40:50.288Z,10.40
2023-01-11T19:43:37.229Z,10.10
2023-01-11T19:46:31.619Z,9.50
2023-01-11T19:49:20.434Z,9.70
2023-01-11T19:52:12.687Z,10.50
2023-01-11T19:54:59.145Z,10.50
2023-01-11T19:57:45.202Z,10.20
2023-01-11T20:03:32.089Z,10.10
2023-01-11T20:06:17.469Z,9.60
2023-01-11T20:09:03.158Z,9.90
2023-01-11T20:11:49.463Z,10.00
2023-01-11T20:14:35.385Z,10.20
2023-01-11T20:17:21.231Z,10.10
2023-01-11T20:20:07.733Z,9.90
2023-01-11T20:22:53.312Z,9.80
2023-01-11T20:25:41.250Z,9.60
2023-01-11T20:28:27.535Z,9.00
2023-01-11T20:31:13.426Z,9.30
2023-01-11T20:34:00.440Z,9.80
2023-01-11T20:36:48.916Z,10.00
2023-01-11T20:39:34.498Z,9.80
2023-01-11T20:42:21.247Z,9.60
2023-01-11T20:45:07.718Z,9.40
2023-01-11T20:47:53.413Z,10.10
2023-01-11T20:50:39.149Z,10.50
2023-01-11T20:53:24.763Z,10.60
2023-01-11T20:56:10.190Z,10.60
2023-01-11T20:58:55.981Z,10.50
2023-01-11T21:01:41.928Z,10.40
2023-01-11T21:04:27.920Z,10.20
2023-01-11T21:07:13.803Z,10.10
2023-01-11T21:09:59.501Z,10.10
2023-01-11T21:12:45.210Z,10.10
2023-01-11T21:15:30.929Z,10.10
2023-01-11T21:18:16.563Z,10.30
2023-01-11T21:21:02.307Z,10.10
2023-01-11T21:23:47.805Z,9.60
2023-01-11T21:26:34.749Z,9.50
2023-01-11T21:29:20.179Z,9.20
2023-01-11T21:32:06.364Z,8.90
2023-01-11T21:34:52.232Z,8.30
2023-01-11T21:37:37.751Z,7.90
2023-01-11T21:40:23.581Z,8.00
2023-01-11T21:43:09.178Z,8.40
2023-01-11T21:45:55.805Z,8.50
2023-01-11T21:48:41.410Z,8.30
2023-01-11T21:51:29.744Z,7.70
2023-01-11T21:54:20.075Z,7.50
2023-01-11T21:57:06.238Z,7.80
2023-01-11T21:59:52.315Z,7.80
2023-01-11T22:02:37.702Z,7.70
2023-01-11T22:05:24.598Z,8.00
2023-01-11T22:08:10.490Z,7.90
2023-01-11T22:11:00.932Z,7.70
2023-01-11T22:13:46.572Z,7.60
2023-01-11T22:16:33.110Z,7.40
2023-01-11T22:19:18.955Z,7.40
2023-01-11T22:22:04.824Z,7.80
2023-01-11T22:24:50.604Z,7.90
2023-01-11T22:27:36.142Z,7.60
2023-01-11T22:30:22.098Z,7.50
2023-01-11T22:33:07.986Z,7.30
2023-01-11T22:35:56.681Z,7.70
2023-01-11T22:38:43.053Z,7.70
2023-01-11T22:41:28.889Z,7.30
2023-01-11T22:44:15.059Z,7.40
2023-01-11T22:47:02.005Z,7.30
2023-01-11T22:49:53.746Z,7.40
2023-01-11T22:52:40.035Z,7.60
2023-01-11T22:55:25.727Z,7.70
2023-01-11T22:58:11.616Z,7.60
2023-01-11T23:00:58.038Z,7.70
2023-01-11T23:03:45.191Z,7.60
2023-01-11T23:06:36.936Z,7.60
2023-01-11T23:09:23.272Z,7.80
2023-01-11T23:12:27.790Z,7.80
2023-01-11T23:15:13.280Z,8.10
2023-01-11T23:17:58.867Z,8.90
2023-01-11T23:20:44.436Z,9.10
2023-01-11T23:23:30.044Z,9.20
2023-01-11T23:26:18.660Z,9.10
2023-01-11T23:29:04.999Z,9.00
2023-01-11T23:31:52.193Z,8.90
2023-01-11T23:34:37.870Z,8.80
2023-01-11T23:37:23.263Z,8.80
2023-01-11T23:40:10.110Z,8.80
2023-01-11T23:42:55.889Z,8.80
2023-01-11T23:45:41.562Z,8.70
2023-01-11T23:48:27.318Z,8.60
2023-01-11T23:51:12.854Z,8.60
2023-01-11T23:53:58.824Z,8.50
2023-01-11T23:56:44.433Z,8.50
2023-01-11T23:59:30.631Z,8.70
